Time;durP1;ratioP1;P1;durP2;ratioP2;P2;SDS_P1;SDS_P2;PMS_P1;PMS_P2;Temp;Humidity;BMP_temperature;BMP_pressure;BME280_temperature;BME280_humidity;BME280_pressure;Samples;Min_cycle;Max_cycle;Signal;HPM_P1;HPM_P2
2021/10/14 00:02:29;;;;;;;8.07;6.07;;;;;;;11.85;55.86;98849.53;8283080;28;20272;-66
2021/10/14 00:06:32;;;;;;;9.23;6.43;;;;;;;11.89;56.13;98845.97;8284115;28;20316;-66
2021/10/14 00:10:35;;;;;;;10.67;6.50;;;;;;;11.87;56.21;98850.34;8283989;28;20237;-66
2021/10/14 00:14:37;;;;;;;8.10;6.27;;;;;;;11.79;56.38;98847.16;8284047;28;20206;-66
2021/10/14 00:18:43;;;;;;;9.27;6.30;;;;;;;11.82;56.06;98847.06;8284216;28;20209;-66
2021/10/14 00:22:46;;;;;;;11.17;6.17;;;;;;;11.79;56.44;98841.97;8284255;28;20519;-66
2021/10/14 00:26:48;;;;;;;10.23;6.60;;;;;;;11.79;56.66;98838.53;8284014;28;20209;-66
2021/10/14 00:30:51;;;;;;;8.97;6.73;;;;;;;11.80;56.50;98837.63;8283657;28;20233;-66
2021/10/14 00:34:56;;;;;;;12.20;6.63;;;;;;;11.85;56.56;98833.97;8283797;28;20237;-66
2021/10/14 00:39:00;;;;;;;9.63;7.00;;;;;;;11.83;56.61;98828.00;8283863;28;20202;-66
2021/10/14 00:43:02;;;;;;;9.47;7.47;;;;;;;11.87;56.87;98820.94;8283462;28;20213;-66
2021/10/14 00:47:05;;;;;;;13.67;7.30;;;;;;;11.81;57.08;98815.97;8283620;28;20202;-66
2021/10/14 00:51:10;;;;;;;11.87;7.90;;;;;;;11.89;57.05;98817.41;8283611;28;20229;-66
2021/10/14 00:55:14;;;;;;;13.70;8.33;;;;;;;11.83;57.15;98817.59;8289446;28;20396;-66
2021/10/14 00:59:17;;;;;;;10.87;7.87;;;;;;;11.88;57.04;98831.28;8289038;28;20205;-66
2021/10/14 01:03:24;;;;;;;12.37;7.90;;;;;;;11.89;56.83;98825.19;8289212;28;20210;-66
2021/10/14 01:07:31;;;;;;;11.77;8.17;;;;;;;11.93;57.16;98821.59;8289112;28;20201;-66
2021/10/14 01:11:33;;;;;;;13.63;8.30;;;;;;;11.96;57.22;98815.47;8288709;28;20237;-66
2021/10/14 01:15:36;;;;;;;12.33;8.30;;;;;;;11.96;57.29;98804.22;8288668;28;20201;-66
2021/10/14 01:19:41;;;;;;;11.10;8.20;;;;;;;11.97;57.29;98800.72;8288611;28;20465;-66
2021/10/14 01:23:45;;;;;;;11.03;8.27;;;;;;;11.89;57.46;98801.84;8288522;28;20493;-66
2021/10/14 01:27:48;;;;;;;14.37;8.60;;;;;;;11.94;57.05;98804.28;8288260;28;20206;-66
2021/10/14 01:31:51;;;;;;;14.50;9.13;;;;;;;11.88;57.82;98801.84;8288017;28;20225;-66
2021/10/14 01:35:55;;;;;;;11.77;9.00;;;;;;;11.79;58.00;98797.88;8288031;28;20240;-66
2021/10/14 01:39:58;;;;;;;12.27;8.70;;;;;;;11.92;57.95;98785.34;8288051;28;20225;-66
2021/10/14 01:44:01;;;;;;;13.43;9.20;;;;;;;11.83;57.86;98781.28;8287780;28;20201;-66
2021/10/14 01:48:04;;;;;;;16.87;9.80;;;;;;;11.78;58.35;98782.34;8287808;28;20206;-66
2021/10/14 01:52:09;;;;;;;13.07;10.20;;;;;;;11.82;57.96;98783.91;8287474;28;20230;-66
2021/10/14 01:56:11;;;;;;;14.50;9.90;;;;;;;11.74;58.07;98779.00;8287493;28;20201;-66
2021/10/14 02:00:15;;;;;;;15.23;9.90;;;;;;;11.82;58.15;98782.19;8287528;28;20213;-66
2021/10/14 02:04:18;;;;;;;17.63;9.77;;;;;;;11.82;58.32;98779.59;8287130;28;20202;-67
2021/10/14 02:08:22;;;;;;;13.53;9.27;;;;;;;11.80;58.21;98783.97;8287358;28;20400;-66
2021/10/14 02:12:25;;;;;;;13.80;9.60;;;;;;;11.85;58.05;98787.25;8286794;28;20448;-66
2021/10/14 02:16:28;;;;;;;13.33;10.13;;;;;;;11.92;57.64;98793.94;8286956;28;20208;-66
2021/10/14 02:20:34;;;;;;;14.83;9.83;;;;;;;11.94;57.81;98791.31;8287047;28;20268;-67
2021/10/14 02:24:38;;;;;;;14.20;10.37;;;;;;;12.01;57.51;98790.16;8286634;28;20202;-66
2021/10/14 02:28:41;;;;;;;14.53;10.53;;;;;;;12.03;57.30;98797.91;8286650;28;20358;-66
2021/10/14 02:32:44;;;;;;;16.57;10.50;;;;;;;12.00;57.76;98800.63;8286054;28;20237;-66
2021/10/14 02:36:47;;;;;;;15.77;10.07;;;;;;;11.99;57.38;98791.97;8286470;28;20212;-67
2021/10/14 02:40:51;;;;;;;15.37;10.93;;;;;;;12.01;57.68;98784.13;8286142;28;20206;-66
2021/10/14 02:44:54;;;;;;;14.00;11.10;;;;;;;11.93;57.89;98787.00;8285998;28;20209;-66
2021/10/14 02:48:57;;;;;;;14.73;10.93;;;;;;;12.05;57.42;98777.91;8285775;28;20208;-66
2021/10/14 02:53:02;;;;;;;15.00;11.00;;;;;;;12.02;57.61;98786.66;8285691;28;20229;-66
2021/10/14 02:57:06;;;;;;;15.40;11.33;;;;;;;12.07;57.46;98781.28;8285934;28;20316;-66
2021/10/14 03:01:09;;;;;;;16.27;11.97;;;;;;;11.97;57.66;98770.41;8285542;28;20213;-66
2021/10/14 03:05:12;;;;;;;15.30;11.27;;;;;;;12.00;57.59;98766.88;8285576;28;20225;-66
2021/10/14 03:09:15;;;;;;;16.47;11.10;;;;;;;12.08;57.45;98770.03;8285269;28;20230;-66
2021/10/14 03:13:19;;;;;;;16.73;10.83;;;;;;;12.11;57.33;98775.09;8285170;28;20233;-66
2021/10/14 03:17:22;;;;;;;15.57;10.73;;;;;;;12.06;57.35;98771.81;8284558;28;20202;-66
2021/10/14 03:21:25;;;;;;;15.57;10.97;;;;;;;12.07;57.27;98773.50;8284959;28;20512;-66
2021/10/14 03:25:28;;;;;;;18.00;11.90;;;;;;;12.07;57.35;98776.09;8284812;28;20201;-66
2021/10/14 03:29:32;;;;;;;18.17;11.53;;;;;;;12.12;57.25;98779.38;8284823;28;20214;-66
2021/10/14 03:33:35;;;;;;;14.17;11.47;;;;;;;12.06;57.36;98777.84;8284419;28;20245;-66
2021/10/14 03:37:38;;;;;;;16.33;11.40;;;;;;;12.10;57.27;98789.81;8284714;28;20210;-66
2021/10/14 03:41:41;;;;;;;15.90;11.60;;;;;;;12.16;57.14;98783.56;8284578;28;20385;-66
2021/10/14 03:45:45;;;;;;;13.90;10.43;;;;;;;12.19;57.22;98774.81;8284463;28;20201;-66
2021/10/14 03:49:48;;;;;;;14.40;11.33;;;;;;;12.10;57.44;98781.19;8284352;28;20217;-66
2021/10/14 03:53:51;;;;;;;13.70;10.73;;;;;;;12.12;57.57;98793.19;8284347;28;20232;-66
2021/10/14 03:57:55;;;;;;;13.20;10.67;;;;;;;12.15;57.59;98786.19;8284353;28;20216;-66
2021/10/14 04:02:02;;;;;;;16.30;11.33;;;;;;;12.11;57.53;98777.69;8284374;28;20236;-66
2021/10/14 04:06:08;;;;;;;15.13;10.93;;;;;;;12.09;57.86;98792.50;8284373;28;20379;-66
2021/10/14 04:10:11;;;;;;;18.03;11.63;;;;;;;12.12;57.78;98794.97;8284231;28;20224;-66
2021/10/14 04:14:15;;;;;;;14.07;11.00;;;;;;;12.12;57.76;98805.34;8284140;28;20532;-66
2021/10/14 04:18:22;;;;;;;15.80;10.87;;;;;;;12.22;57.27;98800.66;8284225;28;20252;-66
2021/10/14 04:22:27;;;;;;;16.73;11.30;;;;;;;12.20;57.74;98800.69;8284175;28;20206;-66
2021/10/14 04:26:33;;;;;;;15.97;11.37;;;;;;;12.19;57.49;98804.22;8284643;28;20274;-66
2021/10/14 04:30:36;;;;;;;14.67;10.83;;;;;;;12.20;58.27;98805.88;8290139;28;20213;-66
2021/10/14 04:34:41;;;;;;;18.33;11.37;;;;;;;12.17;58.01;98803.44;8289879;28;20439;-66
2021/10/14 04:38:44;;;;;;;17.53;10.27;;;;;;;12.31;60.06;98808.94;8289890;28;20202;-66
2021/10/14 04:42:47;;;;;;;15.83;11.40;;;;;;;12.22;58.61;98804.13;8289599;28;20210;-66
2021/10/14 04:46:49;;;;;;;16.17;11.63;;;;;;;12.19;58.45;98808.56;8289703;28;20248;-66
2021/10/14 04:50:54;;;;;;;16.00;10.63;;;;;;;12.03;58.91;98801.34;8289538;28;20209;-66
2021/10/14 04:54:57;;;;;;;15.37;11.83;;;;;;;12.09;58.93;98802.88;8289302;28;20555;-65
2021/10/14 04:58:59;;;;;;;17.87;12.03;;;;;;;12.01;59.43;98792.75;8289146;28;20202;-66
2021/10/14 05:03:02;;;;;;;15.53;11.33;;;;;;;12.12;59.38;98800.16;8296528;28;20373;-66
2021/10/14 05:07:07;;;;;;;16.47;11.63;;;;;;;12.13;59.49;98784.53;8289004;28;20202;-66
2021/10/14 05:11:11;;;;;;;15.30;11.30;;;;;;;12.10;59.47;98792.41;8300089;28;20218;-66
2021/10/14 05:15:14;;;;;;;16.63;11.10;;;;;;;12.04;59.70;98797.84;8288512;28;20384;-66
2021/10/14 05:19:17;;;;;;;16.90;11.53;;;;;;;12.05;59.64;98802.16;8314169;28;20504;-66
2021/10/14 05:23:21;;;;;;;14.90;11.20;;;;;;;12.04;60.06;98805.63;8308659;28;20197;-67
2021/10/14 05:27:24;;;;;;;15.90;11.47;;;;;;;11.99;60.24;98804.09;8303799;28;20208;-66
2021/10/14 05:31:28;;;;;;;13.97;11.40;;;;;;;12.05;59.97;98789.16;8288117;28;20208;-66
2021/10/14 05:35:31;;;;;;;14.53;11.30;;;;;;;12.10;59.67;98795.00;8294205;28;20321;-66
2021/10/14 05:39:36;;;;;;;17.10;11.10;;;;;;;12.10;59.75;98802.81;8314592;28;20208;-66
2021/10/14 05:43:39;;;;;;;17.33;11.43;;;;;;;12.10;60.25;98808.00;8304282;28;20206;-66
2021/10/14 05:47:42;;;;;;;15.67;10.90;;;;;;;11.96;60.39;98818.06;8288184;28;20201;-66
2021/10/14 05:51:45;;;;;;;18.30;11.70;;;;;;;12.08;59.98;98814.16;8287590;28;20201;-66
2021/10/14 05:55:49;;;;;;;13.00;10.37;;;;;;;12.07;60.29;98828.03;8287610;28;20202;-66
2021/10/14 05:59:52;;;;;;;16.50;11.67;;;;;;;12.09;60.34;98823.66;8287751;28;20231;-66
2021/10/14 06:03:55;;;;;;;17.03;10.70;;;;;;;12.15;59.83;98818.22;8287318;28;20217;-66
2021/10/14 06:07:58;;;;;;;14.80;11.43;;;;;;;12.16;60.17;98822.50;8287195;28;20209;-66
2021/10/14 06:12:02;;;;;;;13.60;10.63;;;;;;;12.16;59.92;98821.66;8286782;28;20233;-66
2021/10/14 06:16:06;;;;;;;15.67;11.20;;;;;;;12.11;59.88;98820.09;8286809;28;20201;-66
2021/10/14 06:20:09;;;;;;;13.53;10.73;;;;;;;12.16;60.26;98811.28;8286691;28;20276;-66
2021/10/14 06:24:12;;;;;;;14.23;10.40;;;;;;;12.13;60.56;98820.03;8286938;28;20386;-66
2021/10/14 06:28:17;;;;;;;15.13;11.13;;;;;;;12.20;60.35;98818.88;8286407;28;20202;-66
2021/10/14 06:32:19;;;;;;;14.57;10.43;;;;;;;12.09;60.63;98811.50;8286585;28;20232;-66
2021/10/14 06:36:23;;;;;;;13.57;10.33;;;;;;;12.13;60.57;98822.63;8286053;28;20242;-66
2021/10/14 06:40:26;;;;;;;12.83;10.37;;;;;;;12.16;60.41;98827.69;8286188;28;20209;-66
2021/10/14 06:44:30;;;;;;;14.67;11.13;;;;;;;12.22;60.57;98830.09;8285908;28;20512;-66
2021/10/14 06:48:33;;;;;;;13.77;11.47;;;;;;;12.18;60.72;98823.28;8285487;28;20389;-66
2021/10/14 06:52:36;;;;;;;12.17;10.73;;;;;;;12.18;61.07;98822.44;8285273;28;20229;-66
2021/10/14 06:56:39;;;;;;;14.57;10.50;;;;;;;12.28;60.99;98826.38;8285605;28;20403;-66
2021/10/14 07:00:43;;;;;;;15.30;11.43;;;;;;;12.33;60.90;98825.31;8285628;28;20403;-67
2021/10/14 07:04:46;;;;;;;16.10;11.47;;;;;;;12.39;60.54;98829.41;8285316;28;20205;-66
2021/10/14 07:08:49;;;;;;;14.67;11.20;;;;;;;12.40;60.91;98827.69;8285373;28;20206;-66
2021/10/14 07:12:52;;;;;;;13.37;11.57;;;;;;;12.42;60.93;98824.13;8284991;28;20233;-67
2021/10/14 07:16:56;;;;;;;15.23;11.60;;;;;;;12.44;60.91;98829.25;8285176;28;20379;-66
2021/10/14 07:21:01;;;;;;;16.80;12.20;;;;;;;12.34;61.43;98833.97;8284998;28;20209;-66
2021/10/14 07:25:09;;;;;;;15.40;12.20;;;;;;;12.43;61.61;98831.03;8285194;28;20513;-66
2021/10/14 07:29:12;;;;;;;13.93;11.93;;;;;;;12.40;61.49;98832.88;8284658;28;20202;-66
2021/10/14 07:33:16;;;;;;;14.47;12.70;;;;;;;12.37;61.67;98833.84;8284651;28;20237;-66
2021/10/14 07:37:20;;;;;;;13.40;11.77;;;;;;;12.50;61.96;98836.81;8284847;28;20256;-66
2021/10/14 07:41:23;;;;;;;14.90;12.83;;;;;;;12.48;61.95;98831.69;8284548;28;20201;-66
2021/10/14 07:45:26;;;;;;;14.47;12.97;;;;;;;12.41;61.64;98839.75;8284421;28;20206;-66
2021/10/14 07:49:31;;;;;;;17.23;12.97;;;;;;;12.45;61.42;98841.31;8282519;28;20208;-66
2021/10/14 07:53:34;;;;;;;16.20;13.27;;;;;;;12.38;61.59;98843.31;8284242;28;20236;-66
2021/10/14 07:57:37;;;;;;;7.87;4.97;;;;;;;13.48;67.19;98845.91;8284251;28;20205;-68
2021/10/14 08:01:40;;;;;;;10.77;7.03;;;;;;;15.14;61.98;98836.69;8289400;28;20193;-66
2021/10/14 08:05:44;;;;;;;13.60;9.60;;;;;;;15.30;57.39;98831.56;8317992;28;20227;-67
2021/10/14 08:09:47;;;;;;;12.50;9.73;;;;;;;15.30;55.94;98847.22;8319471;28;20208;-67
2021/10/14 08:13:52;;;;;;;10.67;8.33;;;;;;;15.64;54.88;98841.13;8323001;28;20265;-67
2021/10/14 08:17:55;;;;;;;12.10;8.60;;;;;;;15.64;54.49;98844.59;8323117;28;20226;-66
2021/10/14 08:21:59;;;;;;;10.97;8.13;;;;;;;15.41;54.65;98845.75;8322945;28;20201;-67
2021/10/14 08:26:02;;;;;;;11.83;7.40;;;;;;;15.38;54.60;98839.84;8322750;28;20209;-67
2021/10/14 08:30:06;;;;;;;13.10;10.57;;;;;;;14.96;54.25;98838.44;8322709;28;20208;-66
2021/10/14 08:34:10;;;;;;;9.90;8.90;;;;;;;13.92;57.04;98834.50;8322215;28;20237;-69
2021/10/14 08:38:14;;;;;;;12.13;9.70;;;;;;;13.71;58.26;98830.19;8322414;28;20218;-69
2021/10/14 08:42:18;;;;;;;14.47;8.60;;;;;;;13.67;58.52;98834.72;8317255;28;20198;-69
2021/10/14 08:46:21;;;;;;;8.57;7.33;;;;;;;13.29;59.36;98826.75;8289798;28;20206;-69
2021/10/14 08:50:24;;;;;;;9.27;8.33;;;;;;;13.11;60.03;98833.53;8289598;28;20208;-69
2021/10/14 08:54:30;;;;;;;9.27;7.87;;;;;;;13.18;60.26;98835.00;8289345;28;20236;-69
2021/10/14 08:58:34;;;;;;;8.90;7.40;;;;;;;13.05;60.50;98829.44;8289221;28;20209;-69
2021/10/14 09:02:40;;;;;;;10.07;7.33;;;;;;;12.98;60.30;98833.19;8288918;28;20287;-69
2021/10/14 09:06:43;;;;;;;9.43;7.13;;;;;;;13.12;60.56;98837.84;8289143;28;20268;-69
2021/10/14 09:11:04;;;;;;;10.20;7.00;;;;;;;13.04;60.49;98832.97;8288862;28;20227;-69
2021/10/14 09:15:09;;;;;;;9.47;6.70;;;;;;;13.01;60.55;98827.03;8287785;28;20407;-68
2021/10/14 09:19:16;;;;;;;10.63;7.30;;;;;;;12.83;60.74;98823.41;8288113;28;20201;-68
2021/10/14 09:23:21;;;;;;;8.77;6.73;;;;;;;12.93;60.84;98819.53;8288798;28;20240;-69
2021/10/14 09:27:25;;;;;;;8.77;7.07;;;;;;;12.91;61.35;98821.38;8288609;28;20224;-70
2021/10/14 09:31:28;;;;;;;10.03;7.37;;;;;;;12.90;61.03;98819.66;8288506;28;20209;-68
2021/10/14 09:35:31;;;;;;;9.93;7.17;;;;;;;12.89;61.07;98813.63;8287874;28;20264;-69
2021/10/14 09:39:34;;;;;;;9.83;7.50;;;;;;;12.83;61.08;98815.59;8287950;28;20208;-68
2021/10/14 09:43:38;;;;;;;11.00;7.70;;;;;;;12.91;61.59;98821.38;8287839;28;20210;-69
2021/10/14 09:47:41;;;;;;;10.07;7.00;;;;;;;13.08;61.04;98824.13;8287657;28;20208;-69
2021/10/14 09:51:45;;;;;;;11.30;7.00;;;;;;;13.07;60.89;98819.81;8287752;28;20485;-69
2021/10/14 09:55:49;;;;;;;10.40;7.20;;;;;;;13.17;60.47;98832.44;8287938;28;20233;-68
2021/10/14 09:59:53;;;;;;;9.67;7.07;;;;;;;13.05;61.20;98821.63;8287294;28;20225;-66
2021/10/14 10:03:57;;;;;;;11.03;7.10;;;;;;;13.22;60.91;98820.94;8287417;28;20206;-69
2021/10/14 10:08:02;;;;;;;12.50;7.37;;;;;;;13.21;60.22;98819.28;8287074;28;20201;-68
2021/10/14 10:12:05;;;;;;;12.93;6.83;;;;;;;13.19;60.04;98818.47;8286834;28;20225;-68
2021/10/14 10:16:19;;;;;;;10.97;6.47;;;;;;;13.13;60.67;98823.09;8286951;28;20233;-69
2021/10/14 10:20:37;;;;;;;10.23;6.03;;;;;;;13.05;60.32;98828.59;8286631;28;20267;-68
2021/10/14 10:24:40;;;;;;;62.37;8.10;;;;;;;13.44;61.02;98820.06;8285771;28;20209;-70
2021/10/14 10:28:43;;;;;;;8.97;5.80;;;;;;;13.35;59.64;98826.53;8286656;28;20281;-69
2021/10/14 10:32:47;;;;;;;9.63;5.77;;;;;;;13.24;59.56;98816.53;8286551;28;20233;-69
2021/10/14 10:36:51;;;;;;;15.85;4.43;;;;;;;13.69;61.02;98820.72;8286684;28;20434;-65
2021/10/14 10:40:55;;;;;;;6.50;5.20;;;;;;;13.37;59.88;98819.50;8286327;28;20379;-65
2021/10/14 10:45:08;;;;;;;7.60;4.93;;;;;;;13.41;59.32;98815.84;8286114;28;20442;-65
2021/10/14 10:49:19;;;;;;;8.63;4.77;;;;;;;13.35;59.51;98818.72;8286002;28;20208;-65
2021/10/14 10:53:23;;;;;;;8.23;4.80;;;;;;;13.39;59.36;98817.66;8286160;28;20202;-65
2021/10/14 10:57:45;;;;;;;6.90;4.47;;;;;;;13.38;59.00;98813.38;8285459;28;20206;-65
2021/10/14 11:01:48;;;;;;;9.73;5.00;;;;;;;13.49;59.17;98802.50;8285603;28;20496;-65
2021/10/14 11:05:54;;;;;;;7.90;4.70;;;;;;;13.42;59.05;98801.06;8309721;28;20504;-65
2021/10/14 11:09:57;;;;;;;7.53;5.67;;;;;;;13.42;59.08;98793.28;8317949;28;20201;-65
2021/10/14 11:14:00;;;;;;;8.37;5.77;;;;;;;13.48;59.42;98795.63;8317535;28;20239;-65
2021/10/14 11:18:04;;;;;;;9.27;4.83;;;;;;;13.43;58.65;98787.16;8317609;28;20504;-65
2021/10/14 11:22:15;;;;;;;7.77;4.50;;;;;;;13.46;58.53;98784.41;8317535;28;20201;-66
2021/10/14 11:26:21;;;;;;;8.97;4.90;;;;;;;13.55;57.97;98783.19;8317359;28;20205;-66
2021/10/14 11:30:25;;;;;;;7.47;4.77;;;;;;;13.69;58.27;98780.84;8317582;28;20201;-66
2021/10/14 11:34:46;;;;;;;7.30;4.70;;;;;;;13.88;58.04;98788.69;8316800;28;20235;-67
2021/10/14 11:39:01;;;;;;;7.20;4.83;;;;;;;13.89;57.94;98779.94;8317258;28;20212;-68
2021/10/14 11:43:04;;;;;;;7.73;4.33;;;;;;;13.88;57.92;98776.50;8305873;28;20265;-68
2021/10/14 11:47:12;;;;;;;9.30;4.83;;;;;;;13.82;58.28;98771.56;8284479;28;20393;-68
2021/10/14 11:51:16;;;;;;;8.20;4.83;;;;;;;13.79;58.49;98773.47;8284588;28;20208;-69
2021/10/14 11:55:20;;;;;;;12.90;5.23;;;;;;;14.13;58.87;98774.56;8284351;28;20229;-69
2021/10/14 11:59:24;;;;;;;10.50;5.37;;;;;;;14.07;58.33;98773.91;8284226;28;20201;-69
2021/10/14 12:03:27;;;;;;;5.07;4.00;;;;;;;14.24;59.77;98767.06;8283961;28;20224;-78
2021/10/14 12:07:32;;;;;;;6.70;4.80;;;;;;;14.13;57.96;98757.16;8286031;28;20320;-78
2021/10/14 12:11:36;;;;;;;11.73;5.30;;;;;;;14.10;59.66;98752.06;8299222;28;20532;-80
2021/10/14 12:15:39;;;;;;;11.07;5.60;;;;;;;13.84;60.33;98750.66;8296990;28;20227;-79
2021/10/14 12:19:44;;;;;;;8.30;5.27;;;;;;;14.01;59.95;98742.94;8299966;28;20489;-78
2021/10/14 12:23:47;;;;;;;7.93;5.47;;;;;;;14.11;59.58;98745.97;8296773;28;20193;-66
2021/10/14 12:27:53;;;;;;;8.30;5.47;;;;;;;13.98;59.54;98743.06;8299011;28;20516;-66
2021/10/14 12:32:20;;;;;;;7.73;5.23;;;;;;;14.10;58.70;98733.84;8296405;28;20428;-66
2021/10/14 12:36:23;;;;;;;9.50;4.90;;;;;;;13.98;59.21;98732.66;8265236;28;20225;-66
2021/10/14 12:40:28;;;;;;;10.30;5.37;;;;;;;13.79;58.94;98722.25;8283529;28;20493;-65
2021/10/14 12:44:39;;;;;;;7.93;4.70;;;;;;;13.93;59.50;98728.56;8283455;28;20212;-65
2021/10/14 12:48:50;;;;;;;11.87;5.57;;;;;;;14.05;59.47;98723.66;8286353;28;20205;-66
2021/10/14 12:53:14;;;;;;;9.13;4.67;;;;;;;13.99;59.09;98721.34;8289193;28;20201;-66
2021/10/14 12:57:17;;;;;;;11.37;5.10;;;;;;;13.90;59.22;98716.56;8289285;28;20426;-65
2021/10/14 13:01:22;;;;;;;7.70;4.70;;;;;;;13.95;58.78;98719.75;8289005;28;20548;-66
2021/10/14 13:05:25;;;;;;;12.67;5.00;;;;;;;13.90;59.08;98716.56;8288874;28;20213;-66
2021/10/14 13:09:29;;;;;;;8.87;4.77;;;;;;;13.88;59.77;98715.78;8289086;28;20208;-66
2021/10/14 13:13:33;;;;;;;10.02;5.03;;;;;;;14.12;58.84;98719.00;8288529;28;20430;-74
2021/10/14 13:17:37;;;;;;;8.30;4.37;;;;;;;13.91;58.48;98707.81;8289390;28;20400;-73
2021/10/14 13:21:40;;;;;;;9.80;4.67;;;;;;;13.85;57.85;98714.13;8289021;28;20201;-75
2021/10/14 13:25:44;;;;;;;6.13;3.90;;;;;;;13.74;57.90;98711.19;8294226;28;20431;-74
2021/10/14 13:29:47;;;;;;;5.83;3.97;;;;;;;13.86;58.25;98704.59;8298864;28;20201;-77
2021/10/14 13:33:52;;;;;;;8.60;4.40;;;;;;;13.89;58.52;98705.28;8287919;28;20236;-75
2021/10/14 13:37:55;;;;;;;12.93;7.90;;;;;;;13.82;58.64;98710.81;8286318;28;20226;-74
2021/10/14 13:42:03;;;;;;;7.97;4.50;;;;;;;13.89;58.99;98705.28;8288191;28;20206;-75
2021/10/14 13:46:06;;;;;;;10.70;5.10;;;;;;;13.73;60.00;98709.50;8287198;28;20202;-74
2021/10/14 13:50:11;;;;;;;10.17;5.00;;;;;;;13.83;59.86;98708.16;8287626;28;20201;-73
2021/10/14 13:54:16;;;;;;;11.73;5.13;;;;;;;13.82;59.88;98700.41;8290892;28;20209;-74
2021/10/14 13:58:19;;;;;;;9.00;5.83;;;;;;;13.79;60.78;98701.41;8279971;28;20229;-74
2021/10/14 14:02:22;;;;;;;9.27;5.80;;;;;;;13.81;60.48;98696.97;8287990;28;20201;-66
2021/10/14 14:06:29;;;;;;;9.90;5.10;;;;;;;13.81;60.74;98691.78;8283238;28;20270;-66
2021/10/14 14:10:33;;;;;;;10.30;5.88;;;;;;;13.95;59.75;98685.91;8275842;28;20425;-66
2021/10/14 14:14:35;;;;;;;8.93;5.53;;;;;;;13.90;60.79;98687.91;8308881;28;20196;-66
2021/10/14 14:18:38;;;;;;;10.60;5.27;;;;;;;13.81;60.62;98689.16;8303508;28;20391;-66
2021/10/14 14:22:43;;;;;;;10.63;5.30;;;;;;;13.81;60.42;98681.34;8302193;28;20194;-66
2021/10/14 14:26:45;;;;;;;11.60;5.13;;;;;;;13.86;60.74;98675.94;8294737;28;20209;-67
2021/10/14 14:30:48;;;;;;;13.17;4.70;;;;;;;13.77;61.21;98665.97;8291512;28;20193;-66
2021/10/14 14:34:51;;;;;;;8.77;4.37;;;;;;;13.70;61.13;98668.00;8295181;28;20229;-67
2021/10/14 14:38:55;;;;;;;9.47;5.17;;;;;;;13.73;61.06;98673.06;8295049;28;20201;-66
2021/10/14 14:42:58;;;;;;;9.00;5.40;;;;;;;13.72;61.87;98675.72;8291602;28;20217;-66
2021/10/14 14:47:01;;;;;;;9.03;5.57;;;;;;;13.79;61.59;98674.53;8286264;28;20197;-67
2021/10/14 14:51:04;;;;;;;8.93;5.77;;;;;;;13.73;62.27;98672.19;8283228;28;20475;-66
2021/10/14 14:55:09;;;;;;;7.97;5.80;;;;;;;13.76;62.07;98670.31;8284762;28;20234;-66
2021/10/14 14:59:12;;;;;;;10.57;5.83;;;;;;;13.80;62.20;98660.59;8287756;28;20201;-67
2021/10/14 15:03:15;;;;;;;12.67;6.33;;;;;;;13.83;62.06;98663.91;8285595;28;20205;-66
2021/10/14 15:07:18;;;;;;;9.57;6.17;;;;;;;13.74;62.30;98664.31;8285489;28;20232;-67
2021/10/14 15:11:23;;;;;;;10.17;5.90;;;;;;;13.79;62.32;98662.38;8293975;28;20221;-65
2021/10/14 15:15:26;;;;;;;9.50;6.70;;;;;;;13.85;62.18;98662.06;8296483;28;20438;-65
2021/10/14 15:19:29;;;;;;;9.00;5.77;;;;;;;13.73;62.57;98657.44;8303967;28;20326;-65
2021/10/14 15:23:32;;;;;;;9.90;6.03;;;;;;;13.82;62.61;98657.03;8292317;28;20201;-66
2021/10/14 15:27:37;;;;;;;10.03;6.03;;;;;;;13.74;62.60;98658.28;8284694;28;20205;-66
2021/10/14 15:31:40;;;;;;;9.47;6.37;;;;;;;13.62;63.03;98647.53;8288947;28;20201;-65
2021/10/14 15:35:42;;;;;;;11.27;6.33;;;;;;;13.71;62.87;98655.81;8301594;28;20233;-66
2021/10/14 15:39:47;;;;;;;9.30;6.03;;;;;;;13.76;62.83;98651.25;8294846;28;20451;-66
2021/10/14 15:43:51;;;;;;;10.40;7.00;;;;;;;13.61;63.37;98661.47;8308097;28;20198;-66
2021/10/14 15:47:54;;;;;;;10.33;6.37;;;;;;;13.73;62.83;98654.84;8309594;28;20205;-66
2021/10/14 15:51:57;;;;;;;11.13;6.93;;;;;;;13.75;62.85;98644.38;8284426;28;20201;-66
2021/10/14 15:56:00;;;;;;;9.95;6.60;;;;;;;14.17;61.33;98651.91;8282927;28;20772;-66
2021/10/14 16:00:05;;;;;;;10.07;6.37;;;;;;;13.86;62.36;98652.53;8284310;28;20209;-66
2021/10/14 16:04:08;;;;;;;11.97;7.90;;;;;;;13.85;62.52;98649.06;8284703;28;20209;-66
2021/10/14 16:08:11;;;;;;;12.43;8.13;;;;;;;13.81;62.65;98646.69;8312830;28;20212;-66
2021/10/14 16:12:15;;;;;;;10.47;7.70;;;;;;;13.83;62.69;98643.06;8316518;28;20221;-66
2021/10/14 16:16:20;;;;;;;12.37;9.07;;;;;;;13.86;62.94;98644.72;8316558;28;20228;-65
2021/10/14 16:20:23;;;;;;;12.50;7.60;;;;;;;13.84;62.99;98636.09;8316596;28;20201;-66
2021/10/14 16:24:26;;;;;;;13.83;6.67;;;;;;;13.97;65.32;98647.63;8322114;28;20228;-66
2021/10/14 16:28:29;;;;;;;11.03;6.87;;;;;;;14.55;64.94;98649.19;8322899;28;20211;-66
2021/10/14 16:32:38;;;;;;;13.50;5.63;;;;;;;15.41;64.63;98642.19;8322593;28;20205;-67
2021/10/14 16:36:42;;;;;;;13.57;6.47;;;;;;;16.01;58.10;98643.31;8322602;28;20229;-69
2021/10/14 16:40:45;;;;;;;9.77;6.03;;;;;;;16.60;56.24;98639.09;8322550;28;20205;-69
2021/10/14 18:41:47;;;;;;;10.60;7.97;;;;;;;13.94;62.77;98615.72;8301038;28;20205;-67
2021/10/14 18:45:55;;;;;;;11.17;8.27;;;;;;;13.93;62.77;98614.00;8300688;28;20374;-67
2021/10/14 18:50:03;;;;;;;14.10;8.27;;;;;;;13.89;62.46;98610.69;8299665;28;20391;-68
2021/10/14 18:54:06;;;;;;;12.40;8.90;;;;;;;14.21;62.13;98605.72;8292286;28;20443;-69
2021/10/14 18:58:09;;;;;;;11.07;8.73;;;;;;;13.97;63.03;98605.97;8300263;28;20544;-70
2021/10/14 19:02:13;;;;;;;16.73;13.47;;;;;;;13.83;62.98;98601.41;8294289;28;20260;-70
2021/10/14 19:06:20;;;;;;;14.60;12.97;;;;;;;13.96;62.89;98596.47;8298775;28;20533;-69
2021/10/14 19:14:45;;;;;;;14.40;10.83;;;;;;;13.93;63.09;98587.97;8300022;28;20194;-69
2021/10/14 19:19:02;;;;;;;14.23;10.40;;;;;;;13.79;62.89;98586.88;8298521;28;20516;-69
2021/10/14 20:20:02;;;;;;;11.80;9.60;;;;;;;13.58;62.46;98554.06;8293473;28;20415;-68
2021/10/14 20:24:05;;;;;;;11.87;9.20;;;;;;;13.61;62.37;98556.50;8307660;28;20197;-68
2021/10/14 20:28:08;;;;;;;12.53;8.90;;;;;;;13.58;62.52;98549.69;8310828;28;20198;-68
2021/10/14 20:32:13;;;;;;;9.30;7.87;;;;;;;13.59;62.01;98542.72;8309944;28;20205;-68
2021/10/14 20:36:15;;;;;;;11.80;8.23;;;;;;;13.46;62.70;98545.91;8310030;28;20193;-69
2021/10/14 20:40:18;;;;;;;11.43;9.00;;;;;;;13.47;62.26;98549.34;8309910;28;20193;-70
2021/10/14 20:44:22;;;;;;;13.10;8.90;;;;;;;13.44;62.29;98552.94;8310411;28;20201;-68
2021/10/14 20:48:27;;;;;;;10.23;7.80;;;;;;;13.44;62.07;98545.16;8307244;28;20197;-68
2021/10/14 20:52:32;;;;;;;13.63;9.03;;;;;;;13.34;61.79;98550.84;8305190;28;20229;-67
2021/10/14 21:05:14;;;;;;;10.90;7.90;;;;;;;13.39;61.73;98538.47;8326917;28;20236;-68
2021/10/14 21:09:17;;;;;;;10.13;8.30;;;;;;;13.33;61.79;98538.72;8322891;28;20259;-68
2021/10/14 21:13:24;;;;;;;10.73;8.20;;;;;;;13.28;61.81;98536.31;8321237;28;20221;-68
2021/10/14 21:17:27;;;;;;;9.73;7.97;;;;;;;13.27;61.54;98532.06;8321361;28;20394;-67
2021/10/14 21:21:31;;;;;;;9.20;7.73;;;;;;;13.27;61.61;98529.44;8321275;28;20201;-68
2021/10/14 21:25:40;;;;;;;12.30;8.10;;;;;;;13.21;61.41;98527.13;8320904;28;20220;-69
2021/10/14 21:29:53;;;;;;;10.83;8.93;;;;;;;13.06;61.27;98526.06;8316015;28;20208;-68
2021/10/14 21:38:18;;;;;;;10.83;8.50;;;;;;;13.07;60.78;98509.56;8288385;28;20233;-68
2021/10/14 21:42:22;;;;;;;10.80;9.63;;;;;;;13.04;60.76;98504.47;8288379;28;20388;-68
2021/10/14 21:46:25;;;;;;;10.97;9.03;;;;;;;12.99;60.73;98504.69;8287824;28;20206;-69
2021/10/14 21:50:28;;;;;;;12.20;9.60;;;;;;;12.94;60.81;98492.81;8287763;28;20223;-69
2021/10/14 21:54:32;;;;;;;11.13;9.00;;;;;;;12.89;60.68;98491.28;8287490;28;20202;-68
2021/10/14 21:58:35;;;;;;;9.87;8.90;;;;;;;12.82;60.45;98487.25;8287415;28;20236;-69
2021/10/14 22:02:38;;;;;;;10.10;8.47;;;;;;;12.85;60.47;98489.75;8287580;28;20208;-69
2021/10/14 22:06:41;;;;;;;13.47;9.23;;;;;;;12.75;60.88;98472.84;8287260;28;20202;-68